createdAt,value
2018-05-01T00:00:48.027Z,0.80
2018-05-01T00:03:51.316Z,0.90
2018-05-01T00:06:54.525Z,0.80
2018-05-01T00:09:57.784Z,0.80
2018-05-01T00:13:01.007Z,0.80
2018-05-01T00:16:04.358Z,0.90
2018-05-01T00:19:07.699Z,0.73
2018-05-01T00:22:10.910Z,0.70
2018-05-01T00:25:14.186Z,0.80
2018-05-01T00:28:17.405Z,0.70
2018-05-01T00:31:20.676Z,0.70
2018-05-01T00:34:23.891Z,0.80
2018-05-01T00:37:27.175Z,0.80
2018-05-01T00:40:30.482Z,0.90
2018-05-01T00:43:33.696Z,0.70
2018-05-01T00:46:36.967Z,0.87
2018-05-01T00:49:40.252Z,0.87
2018-05-01T00:52:45.345Z,0.90
2018-05-01T00:55:48.650Z,0.70
2018-05-01T00:58:51.855Z,0.80
2018-05-01T01:01:55.136Z,0.80
2018-05-01T01:04:58.514Z,0.90
2018-05-01T01:08:01.777Z,0.87
2018-05-01T01:11:05.092Z,0.70
2018-05-01T01:14:08.363Z,0.77
2018-05-01T01:17:11.622Z,0.70
2018-05-01T01:20:14.826Z,0.73
2018-05-01T01:23:18.121Z,0.60
2018-05-01T01:26:21.343Z,0.60
2018-05-01T01:29:24.610Z,0.80
2018-05-01T01:32:27.935Z,0.70
2018-05-01T01:35:30.535Z,0.70
2018-05-01T01:38:33.131Z,0.90
2018-05-01T01:41:35.672Z,0.80
2018-05-01T01:44:38.283Z,0.70
2018-05-01T01:47:40.883Z,0.90
2018-05-01T01:50:43.413Z,0.80
2018-05-01T01:53:46.014Z,0.90
2018-05-01T01:56:48.566Z,1.00
2018-05-01T01:59:51.153Z,1.13
2018-05-01T02:02:53.686Z,0.93
2018-05-01T02:05:56.291Z,0.83
2018-05-01T02:08:58.886Z,1.10
2018-05-01T02:12:01.416Z,0.73
2018-05-01T02:15:04.007Z,0.60
2018-05-01T02:18:06.554Z,0.70
2018-05-01T02:21:09.154Z,0.60
2018-05-01T02:24:11.750Z,0.60
2018-05-01T02:27:14.306Z,0.70
2018-05-01T02:30:16.907Z,0.50
2018-05-01T02:33:19.454Z,0.50
2018-05-01T02:36:23.189Z,0.53
2018-05-01T02:39:25.850Z,0.60
2018-05-01T02:42:28.404Z,0.60
2018-05-01T02:45:31.003Z,0.60
2018-05-01T02:48:33.551Z,0.60
2018-05-01T02:51:36.166Z,0.80
2018-05-01T02:54:38.769Z,0.77
2018-05-01T02:57:41.368Z,0.80
2018-05-01T03:00:43.960Z,0.90
2018-05-01T03:03:46.495Z,0.80
2018-05-01T03:06:49.128Z,0.90
2018-05-01T03:09:51.699Z,0.90
2018-05-01T03:12:54.344Z,0.87
2018-05-01T03:15:56.949Z,0.93
2018-05-01T03:18:59.490Z,0.77
2018-05-01T03:22:02.095Z,0.97
2018-05-01T03:25:04.645Z,0.90
2018-05-01T03:28:07.250Z,0.97
2018-05-01T03:31:09.886Z,1.07
2018-05-01T03:34:12.416Z,1.20
2018-05-01T03:37:15.002Z,1.33
2018-05-01T03:40:17.532Z,1.37
2018-05-01T03:43:20.126Z,1.40
2018-05-01T03:46:22.728Z,1.40
2018-05-01T03:49:25.275Z,1.40
2018-05-01T03:52:27.875Z,1.60
2018-05-01T03:55:30.413Z,1.60
2018-05-01T03:58:33.014Z,1.50
2018-05-01T04:01:35.561Z,1.60
2018-05-01T04:04:38.170Z,1.37
2018-05-01T04:07:40.766Z,1.47
2018-05-01T04:10:43.317Z,1.63
2018-05-01T04:13:45.948Z,1.70
2018-05-01T04:16:48.495Z,1.93
2018-05-01T04:19:51.105Z,1.80
2018-05-01T04:22:53.704Z,1.80
2018-05-01T04:25:56.238Z,2.00
2018-05-01T04:28:58.843Z,1.70
2018-05-01T04:32:01.377Z,1.50
2018-05-01T04:35:04.004Z,1.50
2018-05-01T04:38:06.625Z,1.30
2018-05-01T04:41:09.178Z,1.30
2018-05-01T04:44:11.774Z,1.20
2018-05-01T04:47:14.311Z,0.90
2018-05-01T04:50:16.912Z,1.00
2018-05-01T04:53:19.446Z,1.17
2018-05-01T04:56:22.044Z,1.13
2018-05-01T04:59:24.655Z,1.10
2018-05-01T05:02:27.198Z,1.27
2018-05-01T05:05:29.793Z,1.17
2018-05-01T05:08:32.332Z,0.97
2018-05-01T05:11:34.927Z,1.37
2018-05-01T05:14:37.576Z,1.20
2018-05-01T05:17:40.110Z,1.20
2018-05-01T05:20:42.712Z,1.40
2018-05-01T05:23:45.275Z,1.37
2018-05-01T05:26:47.866Z,1.60
2018-05-01T05:29:50.409Z,1.57
2018-05-01T05:32:53.005Z,1.50
2018-05-01T05:35:55.606Z,1.50
2018-05-01T05:38:58.140Z,1.63
2018-05-01T05:42:00.735Z,1.30
2018-05-01T05:45:03.543Z,1.40
2018-05-01T05:48:06.205Z,1.20
2018-05-01T05:51:08.902Z,1.50
2018-05-01T05:54:11.432Z,1.30
2018-05-01T05:57:14.040Z,1.30
2018-05-01T06:00:16.584Z,1.60
2018-05-01T06:03:19.184Z,1.40
2018-05-01T06:06:21.795Z,1.33
2018-05-01T06:09:24.358Z,1.30
2018-05-01T06:12:26.958Z,1.37
2018-05-01T06:15:29.491Z,1.40
2018-05-01T06:18:32.092Z,1.60
2018-05-01T06:21:34.718Z,1.40
2018-05-01T06:24:37.252Z,1.40
2018-05-01T06:27:39.845Z,1.30
2018-05-01T06:30:42.384Z,1.33
2018-05-01T06:33:44.978Z,1.23
2018-05-01T06:36:47.534Z,1.20
2018-05-01T06:39:50.148Z,1.30
2018-05-01T06:42:52.750Z,1.30
2018-05-01T06:45:55.286Z,1.33
2018-05-01T06:48:57.892Z,1.30
2018-05-01T06:52:00.420Z,1.40
2018-05-01T06:55:03.007Z,1.70
2018-05-01T06:58:05.602Z,2.53
2018-05-01T07:01:08.128Z,1.60
2018-05-01T07:04:10.738Z,1.30
2018-05-01T07:07:14.446Z,1.50
2018-05-01T07:10:17.065Z,1.70
2018-05-01T07:13:19.663Z,1.50
2018-05-01T07:16:22.343Z,1.50
2018-05-01T07:19:24.957Z,1.50
2018-05-01T07:22:27.491Z,1.33
2018-05-01T07:25:30.095Z,1.50
2018-05-01T07:28:32.636Z,1.43
2018-05-01T07:31:35.241Z,1.60
2018-05-01T07:34:37.838Z,1.47
2018-05-01T07:37:40.367Z,1.80
2018-05-01T07:40:47.411Z,1.50
2018-05-01T07:43:49.967Z,1.50
2018-05-01T07:46:56.481Z,1.40
2018-05-01T07:50:00.722Z,1.40
2018-05-01T07:53:11.317Z,1.33
2018-05-01T07:56:14.951Z,1.83
2018-05-01T07:59:18.648Z,2.90
2018-05-01T08:02:23.403Z,2.03
2018-05-01T08:05:39.204Z,1.70
2018-05-01T08:08:45.020Z,3.37
2018-05-01T08:11:53.649Z,4.30
2018-05-01T08:14:56.779Z,2.57
2018-05-01T08:18:06.519Z,2.83
2018-05-01T08:21:09.766Z,2.23
2018-05-01T08:24:14.614Z,1.80
2018-05-01T08:27:17.205Z,2.77
2018-05-01T08:30:19.731Z,1.27
2018-05-01T08:33:22.348Z,1.50
2018-05-01T08:36:24.936Z,1.30
2018-05-01T08:39:27.471Z,1.30
2018-05-01T08:42:30.070Z,1.40
2018-05-01T08:45:32.595Z,1.23
2018-05-01T08:48:35.196Z,1.20
2018-05-01T08:51:37.782Z,1.03
2018-05-01T08:54:40.378Z,1.20
2018-05-01T08:57:42.980Z,1.23
2018-05-01T09:00:45.508Z,1.40
2018-05-01T09:03:48.104Z,1.40
2018-05-01T09:06:50.641Z,1.20
2018-05-01T09:09:53.246Z,1.13
2018-05-01T09:12:55.850Z,1.20
2018-05-01T09:15:58.380Z,1.27
2018-05-01T09:19:01.895Z,1.20
2018-05-01T09:22:04.419Z,1.10
2018-05-01T09:25:07.015Z,1.50
2018-05-01T09:28:09.615Z,2.70
2018-05-01T09:31:12.145Z,3.47
2018-05-01T09:34:14.749Z,1.70
2018-05-01T09:37:17.333Z,1.10
2018-05-01T09:40:19.994Z,1.40
2018-05-01T09:43:22.541Z,1.23
2018-05-01T09:46:25.146Z,2.43
2018-05-01T09:49:28.979Z,1.50
2018-05-01T09:52:32.175Z,1.20
2018-05-01T09:55:35.469Z,1.00
2018-05-01T09:58:38.675Z,1.47
2018-05-01T10:01:42.013Z,1.00
2018-05-01T10:04:45.358Z,1.13
2018-05-01T10:07:48.559Z,1.33
2018-05-01T10:10:52.096Z,1.20
2018-05-01T10:13:55.915Z,1.10
2018-05-01T10:16:59.187Z,1.10
2018-05-01T10:20:02.503Z,1.30
2018-05-01T10:23:05.694Z,1.27
2018-05-01T10:26:09.028Z,1.30
2018-05-01T10:29:12.291Z,1.30
2018-05-01T10:32:15.553Z,1.20
2018-05-01T10:35:18.745Z,1.20
2018-05-01T10:38:22.004Z,1.17
2018-05-01T10:41:25.305Z,1.60
2018-05-01T10:44:28.541Z,1.40
2018-05-01T10:47:31.840Z,1.23
2018-05-01T10:50:35.058Z,1.43
2018-05-01T10:53:38.330Z,1.20
2018-05-01T10:56:41.614Z,1.63
2018-05-01T10:59:44.850Z,1.20
2018-05-01T11:02:48.136Z,1.67
2018-05-01T11:05:51.349Z,1.50
2018-05-01T11:08:54.679Z,1.43
2018-05-01T11:11:57.968Z,1.30
2018-05-01T11:15:01.270Z,1.00
2018-05-01T11:18:04.546Z,1.50
2018-05-01T11:21:07.747Z,1.00
2018-05-01T11:24:11.011Z,1.80
2018-05-01T11:27:14.224Z,1.67
2018-05-01T11:30:17.748Z,1.13
2018-05-01T11:33:20.939Z,1.10
2018-05-01T11:36:24.211Z,1.10
2018-05-01T11:39:27.478Z,1.63
2018-05-01T11:42:30.706Z,1.23
2018-05-01T11:45:33.994Z,0.90
2018-05-01T11:48:37.244Z,1.03
2018-05-01T11:51:41.518Z,1.00
2018-05-01T11:54:44.795Z,1.10
2018-05-01T11:57:47.999Z,1.20
2018-05-01T12:00:51.283Z,1.00
2018-05-01T12:03:54.507Z,0.90
2018-05-01T12:06:57.766Z,1.00
2018-05-01T12:10:01.055Z,1.00
2018-05-01T12:13:04.291Z,1.10
2018-05-01T12:16:07.570Z,0.90
2018-05-01T12:19:10.835Z,0.97
2018-05-01T12:22:14.105Z,1.30
2018-05-01T12:25:17.363Z,1.20
2018-05-01T12:28:20.622Z,1.10
2018-05-01T12:31:23.889Z,1.00
2018-05-01T12:34:27.097Z,1.23
2018-05-01T12:37:30.361Z,1.10
2018-05-01T12:40:33.606Z,1.00
2018-05-01T12:43:36.869Z,1.10
2018-05-01T12:46:40.202Z,1.10
2018-05-01T12:49:43.971Z,1.20
2018-05-01T12:52:47.346Z,1.27
2018-05-01T12:55:50.570Z,1.30
2018-05-01T12:58:53.955Z,1.00
2018-05-01T13:01:57.249Z,1.20
2018-05-01T13:05:00.479Z,1.10
2018-05-01T13:08:03.964Z,1.10
2018-05-01T13:11:07.223Z,1.00
2018-05-01T13:14:10.485Z,1.20
2018-05-01T13:17:13.699Z,1.30
2018-05-01T13:20:19.780Z,1.00
2018-05-01T13:23:23.083Z,1.20
2018-05-01T13:26:26.376Z,1.13
2018-05-01T13:29:29.670Z,1.20
2018-05-01T13:32:32.923Z,1.30
2018-05-01T13:35:36.195Z,1.30
2018-05-01T13:38:39.509Z,1.37
2018-05-01T13:41:42.720Z,1.20
2018-05-01T13:44:46.006Z,1.37
2018-05-01T13:47:49.211Z,1.20
2018-05-01T13:50:52.486Z,1.40
2018-05-01T13:53:55.687Z,1.70
2018-05-01T13:56:58.955Z,1.00
2018-05-01T14:00:02.231Z,1.50
2018-05-01T14:03:05.463Z,1.40
2018-05-01T14:06:09.834Z,1.30
2018-05-01T14:09:13.048Z,1.40
2018-05-01T14:12:16.324Z,1.30
2018-05-01T14:15:19.591Z,1.60
2018-05-01T14:18:24.330Z,1.70
2018-05-01T14:21:27.622Z,1.60
2018-05-01T14:24:30.827Z,1.60
2018-05-01T14:27:34.091Z,1.70
2018-05-01T14:30:37.382Z,1.50
2018-05-01T14:33:40.587Z,1.50
2018-05-01T14:36:43.866Z,1.80
2018-05-01T14:39:47.847Z,1.63
2018-05-01T14:42:51.124Z,1.60
2018-05-01T14:45:54.349Z,1.70
2018-05-01T14:48:57.615Z,1.70
2018-05-01T14:52:00.899Z,1.80
2018-05-01T14:55:04.184Z,1.60
2018-05-01T14:58:07.455Z,1.53
2018-05-01T15:01:10.696Z,1.77
2018-05-01T15:04:13.994Z,1.60
2018-05-01T15:07:17.269Z,1.63
2018-05-01T15:10:20.563Z,1.70
2018-05-01T15:13:23.883Z,1.60
2018-05-01T15:16:27.159Z,1.80
2018-05-01T15:19:30.435Z,1.60
2018-05-01T15:22:34.059Z,1.50
2018-05-01T15:25:37.444Z,1.90
2018-05-01T15:28:40.797Z,1.90
2018-05-01T15:31:44.051Z,1.53
2018-05-01T15:34:58.162Z,1.53
2018-05-01T15:38:01.517Z,1.63
2018-05-01T15:41:04.730Z,1.73
2018-05-01T15:44:08.032Z,1.70
2018-05-01T15:47:11.239Z,1.80
2018-05-01T15:50:14.674Z,1.60
2018-05-01T15:53:17.871Z,1.60
2018-05-01T15:56:21.178Z,1.60
2018-05-01T15:59:24.507Z,1.90
2018-05-01T16:02:27.751Z,1.77
2018-05-01T16:05:31.090Z,1.67
2018-05-01T16:08:34.344Z,1.70
2018-05-01T16:11:37.699Z,1.77
2018-05-01T16:14:40.992Z,1.30
2018-05-01T16:17:44.234Z,2.30
2018-05-01T16:20:47.519Z,1.70
2018-05-01T16:23:50.722Z,1.67
2018-05-01T16:26:54.079Z,2.60
2018-05-01T16:29:57.363Z,1.70
2018-05-01T16:33:03.193Z,2.07
2018-05-01T16:36:06.492Z,2.03
2018-05-01T16:39:09.699Z,2.17
2018-05-01T16:42:29.474Z,1.80
2018-05-01T16:45:34.375Z,1.67
2018-05-01T16:48:37.618Z,2.10
2018-05-01T16:51:41.067Z,1.95
2018-05-01T16:54:44.258Z,2.10
2018-05-01T16:57:59.451Z,2.25
2018-05-01T17:04:42.104Z,2.20
2018-05-01T17:08:12.086Z,1.87
2018-05-01T17:11:16.371Z,2.40
2018-05-01T17:14:19.741Z,2.03
2018-05-01T17:17:24.226Z,2.10
2018-05-01T17:20:30.730Z,2.17
2018-05-01T17:23:46.082Z,2.33
2018-05-01T17:26:52.061Z,2.40
2018-05-01T17:29:55.323Z,2.00
2018-05-01T17:32:58.616Z,2.13
2018-05-01T17:36:02.666Z,2.50
2018-05-01T17:39:11.971Z,2.37
2018-05-01T17:42:42.229Z,2.40
2018-05-01T17:45:45.509Z,2.50
2018-05-01T17:48:48.824Z,2.63
2018-05-01T17:51:52.083Z,2.40
2018-05-01T17:54:55.407Z,2.50
2018-05-01T17:57:58.683Z,2.30
2018-05-01T18:01:05.643Z,2.40
2018-05-01T18:04:08.927Z,2.57
2018-05-01T18:07:12.142Z,2.60
2018-05-01T18:10:15.493Z,2.70
2018-05-01T18:13:18.699Z,3.03
2018-05-01T18:16:21.974Z,2.60
2018-05-01T18:19:25.259Z,2.83
2018-05-01T18:22:28.460Z,3.17
2018-05-01T18:25:31.731Z,2.70
2018-05-01T18:28:35.007Z,2.60
2018-05-01T18:31:38.340Z,3.10
2018-05-01T18:34:41.546Z,2.63
2018-05-01T18:37:44.837Z,2.90
2018-05-01T18:40:48.132Z,2.90
2018-05-01T18:43:51.352Z,2.80
2018-05-01T18:46:54.615Z,3.47
2018-05-01T18:49:57.815Z,2.70
2018-05-01T18:53:01.081Z,2.70
2018-05-01T18:56:04.442Z,3.17
2018-05-01T18:59:07.638Z,3.10
2018-05-01T19:02:10.928Z,3.50
2018-05-01T19:05:14.119Z,3.63
2018-05-01T19:08:17.404Z,3.40
2018-05-01T19:11:20.746Z,3.20
2018-05-01T19:14:24.032Z,3.37
2018-05-01T19:17:27.360Z,3.47
2018-05-01T19:20:30.573Z,3.53
2018-05-01T19:23:33.849Z,3.67
2018-05-01T19:26:37.056Z,3.67
2018-05-01T19:29:40.343Z,3.80
2018-05-01T19:32:43.655Z,4.00
2018-05-01T19:35:46.879Z,3.60
2018-05-01T19:38:50.149Z,6.83
2018-05-01T19:41:53.356Z,6.60
2018-05-01T19:44:56.631Z,4.47
2018-05-01T19:47:59.823Z,3.83
2018-05-01T19:51:03.151Z,3.07
2018-05-01T19:54:06.477Z,3.60
2018-05-01T19:57:10.588Z,3.00
2018-05-01T20:00:13.850Z,3.90
2018-05-01T20:03:17.087Z,3.80
2018-05-01T20:06:20.419Z,3.33
2018-05-01T20:09:23.625Z,3.73
2018-05-01T20:12:26.896Z,3.40
2018-05-01T20:15:30.173Z,3.20
2018-05-01T20:18:33.378Z,5.70
2018-05-01T20:21:36.641Z,4.30
2018-05-01T20:24:39.939Z,3.80
2018-05-01T20:27:43.210Z,4.17
2018-05-01T20:30:46.487Z,4.30
2018-05-01T20:33:50.796Z,3.20
2018-05-01T20:36:54.076Z,3.50
2018-05-01T20:39:58.054Z,4.30
2018-05-01T20:43:01.322Z,3.23
2018-05-01T20:46:05.728Z,3.53
2018-05-01T20:49:08.930Z,3.40
2018-05-01T20:52:12.215Z,3.77
2018-05-01T20:55:15.415Z,3.53
2018-05-01T20:58:18.713Z,4.47
2018-05-01T21:01:21.923Z,2.97
2018-05-01T21:04:25.194Z,3.10
2018-05-01T21:07:28.478Z,3.63
2018-05-01T21:10:31.736Z,3.60
2018-05-01T21:13:34.990Z,3.13
2018-05-01T21:16:38.205Z,3.40
2018-05-01T21:19:41.582Z,4.37
2018-05-01T21:22:44.783Z,4.10
2018-05-01T21:25:48.099Z,3.80
2018-05-01T21:28:51.419Z,3.80
2018-05-01T21:31:54.643Z,4.03
2018-05-01T21:34:57.945Z,3.67
2018-05-01T21:38:01.153Z,3.60
2018-05-01T21:41:04.448Z,3.63
2018-05-01T21:44:07.755Z,3.17
2018-05-01T21:47:10.998Z,3.47
2018-05-01T21:50:14.271Z,3.63
2018-05-01T21:53:18.298Z,3.97
2018-05-01T21:56:22.382Z,4.90
2018-05-01T21:59:25.680Z,4.67
2018-05-01T22:02:28.935Z,5.87
2018-05-01T22:05:32.212Z,4.97
2018-05-01T22:08:35.444Z,4.70
2018-05-01T22:11:38.725Z,3.93
2018-05-01T22:14:41.931Z,4.07
2018-05-01T22:17:45.221Z,3.70
2018-05-01T22:20:48.506Z,4.10
2018-05-01T22:23:51.711Z,3.43
2018-05-01T22:26:54.974Z,3.93
2018-05-01T22:29:58.175Z,4.13
2018-05-01T22:33:01.437Z,3.60
2018-05-01T22:36:04.779Z,4.00
2018-05-01T22:39:07.972Z,4.30
2018-05-01T22:42:11.248Z,3.83
2018-05-01T22:45:14.471Z,3.57
2018-05-01T22:48:17.743Z,4.13
2018-05-01T22:51:21.062Z,4.57
2018-05-01T22:54:24.269Z,4.30
2018-05-01T22:57:27.535Z,5.30
2018-05-01T23:00:30.802Z,4.07
2018-05-01T23:03:34.290Z,5.07
2018-05-01T23:06:37.485Z,4.87
2018-05-01T23:09:40.754Z,4.57
2018-05-01T23:12:44.012Z,4.50
2018-05-01T23:15:47.219Z,3.80
2018-05-01T23:18:50.519Z,4.40
2018-05-01T23:21:53.778Z,4.93
2018-05-01T23:24:57.054Z,5.67
2018-05-01T23:28:00.347Z,5.03
2018-05-01T23:31:03.542Z,4.60
2018-05-01T23:34:06.815Z,4.67
2018-05-01T23:37:10.043Z,4.47
2018-05-01T23:40:13.314Z,4.47
2018-05-01T23:43:16.515Z,4.50
2018-05-01T23:46:19.804Z,4.20
2018-05-01T23:49:23.080Z,3.83
2018-05-01T23:52:26.320Z,4.50
2018-05-01T23:55:29.588Z,4.90
2018-05-01T23:58:32.807Z,4.53
